Terminal Aerodrome Forecast
Issued by NWS

Current Version | Previous Version | Text Only | Print | Product List | Glossary On
Versions: 1 2 3 4 5 6 7 8 9 10 11 12 13 14 15 16 17 18 19 20 21 22
584
FTUS43 KILX 231136
TAFBMI
TAF
KBMI 231136Z 2312/2412 VRB03KT P6SM SKC
     FM231400 18005KT P6SM SCT045 BKN250
     FM231700 21008KT P6SM VCTS BKN045CB
     FM232000 19006KT P6SM SCT045 BKN250=

USA.gov is the U.S. government's official web portal to all federal, state and local government web resources and services.